createdAt,value
2023-05-25T00:01:01.159Z,3.10
2023-05-25T00:03:33.980Z,2.60
2023-05-25T00:06:05.755Z,3.03
2023-05-25T00:08:36.728Z,2.93
2023-05-25T00:11:07.689Z,3.40
2023-05-25T00:13:39.933Z,3.50
2023-05-25T00:16:10.883Z,4.30
2023-05-25T00:18:43.270Z,3.50
2023-05-25T00:21:15.687Z,3.53
2023-05-25T00:23:46.604Z,4.00
2023-05-25T00:26:17.596Z,2.80
2023-05-25T00:28:48.509Z,3.20
2023-05-25T00:31:19.561Z,3.30
2023-05-25T00:33:50.695Z,3.30
2023-05-25T00:36:21.622Z,3.37
2023-05-25T00:38:52.684Z,4.17
2023-05-25T00:41:26.286Z,3.80
2023-05-25T00:43:57.366Z,3.33
2023-05-25T00:46:29.106Z,3.17
2023-05-25T00:49:00.323Z,3.20
2023-05-25T00:51:36.554Z,3.37
2023-05-25T00:54:07.813Z,2.87
2023-05-25T00:56:44.458Z,2.57
2023-05-25T00:59:41.773Z,3.40
2023-05-25T01:02:17.068Z,3.33
2023-05-25T01:04:53.935Z,3.47
2023-05-25T01:07:27.041Z,4.47
2023-05-25T01:10:01.753Z,3.67
2023-05-25T01:12:39.127Z,2.87
2023-05-25T01:15:11.472Z,3.43
2023-05-25T01:17:43.857Z,2.87
2023-05-25T01:20:14.871Z,3.87
2023-05-25T01:22:54.639Z,3.47
2023-05-25T01:25:54.221Z,3.43
2023-05-25T01:28:41.441Z,3.20
2023-05-25T01:31:16.071Z,3.47
2023-05-25T01:33:51.826Z,3.77
2023-05-25T01:36:22.854Z,3.20
2023-05-25T01:38:54.053Z,3.67
2023-05-25T01:41:24.978Z,3.97
2023-05-25T01:43:56.022Z,3.30
2023-05-25T01:46:40.843Z,4.57
2023-05-25T01:49:31.093Z,3.70
2023-05-25T01:52:27.137Z,3.70
2023-05-25T01:55:07.534Z,3.90
2023-05-25T01:57:43.730Z,4.57
2023-05-25T02:00:15.731Z,3.70
2023-05-25T02:02:50.936Z,3.37
2023-05-25T02:05:21.884Z,3.90
2023-05-25T02:07:52.831Z,3.53
2023-05-25T02:10:23.799Z,3.87
2023-05-25T02:12:54.728Z,4.10
2023-05-25T02:15:25.754Z,3.50
2023-05-25T02:17:57.909Z,3.37
2023-05-25T02:20:29.078Z,3.93
2023-05-25T02:23:00.058Z,4.60
2023-05-25T02:25:31.090Z,3.70
2023-05-25T02:28:02.320Z,3.27
2023-05-25T02:30:33.326Z,4.40
2023-05-25T02:33:04.375Z,4.30
2023-05-25T02:35:36.489Z,3.63
2023-05-25T02:38:07.589Z,4.10
2023-05-25T02:40:38.578Z,4.37
2023-05-25T02:43:09.921Z,4.50
2023-05-25T02:45:40.969Z,3.87
2023-05-25T02:48:12.332Z,4.70
2023-05-25T02:50:43.295Z,3.80
2023-05-25T02:53:14.239Z,4.40
2023-05-25T02:55:45.371Z,4.30
2023-05-25T02:58:16.700Z,4.43
2023-05-25T03:00:47.711Z,4.37
2023-05-25T03:03:18.708Z,4.47
2023-05-25T03:05:52.263Z,4.40
2023-05-25T03:08:23.694Z,4.00
2023-05-25T03:10:54.590Z,4.03
2023-05-25T03:13:25.714Z,4.60
2023-05-25T03:15:56.643Z,4.07
2023-05-25T03:18:28.127Z,4.40
2023-05-25T03:20:59.092Z,4.40
2023-05-25T03:23:30.013Z,4.50
2023-05-25T03:26:00.985Z,4.20
2023-05-25T03:28:31.886Z,4.70
2023-05-25T03:31:02.895Z,3.93
2023-05-25T03:33:33.985Z,4.80
2023-05-25T03:36:09.527Z,4.70
2023-05-25T03:38:40.457Z,3.80
2023-05-25T03:41:11.455Z,4.40
2023-05-25T03:43:42.452Z,3.70
2023-05-25T03:46:13.457Z,4.10
2023-05-25T03:48:44.432Z,5.00
2023-05-25T03:51:16.478Z,4.50
2023-05-25T03:53:47.437Z,4.53
2023-05-25T03:56:18.383Z,4.67
2023-05-25T03:58:49.776Z,4.73
2023-05-25T04:01:20.794Z,4.07
2023-05-25T04:03:53.015Z,4.30
2023-05-25T04:06:25.702Z,4.53
2023-05-25T04:08:58.045Z,4.63
2023-05-25T04:11:29.170Z,4.13
2023-05-25T04:14:00.172Z,4.37
2023-05-25T04:16:31.232Z,4.97
2023-05-25T04:19:02.324Z,5.47
2023-05-25T04:21:33.395Z,4.40
2023-05-25T04:24:04.602Z,5.47
2023-05-25T04:26:35.545Z,5.23
2023-05-25T04:29:07.090Z,5.10
2023-05-25T04:31:39.246Z,5.13
2023-05-25T04:34:10.160Z,4.70
2023-05-25T04:36:43.193Z,5.70
2023-05-25T04:39:14.212Z,4.90
2023-05-25T04:41:46.374Z,5.07
2023-05-25T04:44:17.880Z,4.90
2023-05-25T04:46:48.848Z,5.00
2023-05-25T04:49:19.825Z,4.57
2023-05-25T04:51:51.553Z,5.27
2023-05-25T04:54:22.568Z,4.80
2023-05-25T04:56:53.535Z,4.80
2023-05-25T04:59:24.465Z,5.23
2023-05-25T05:01:55.460Z,5.00
2023-05-25T05:04:26.449Z,4.33
2023-05-25T05:06:58.965Z,5.00
2023-05-25T05:09:30.174Z,5.90
2023-05-25T05:12:01.828Z,4.33
2023-05-25T05:14:32.792Z,4.90
2023-05-25T05:17:04.614Z,4.73
2023-05-25T05:19:37.918Z,4.27
2023-05-25T05:22:09.797Z,6.07
2023-05-25T05:24:40.729Z,5.47
2023-05-25T05:27:16.612Z,5.87
2023-05-25T05:29:47.516Z,4.80
2023-05-25T05:32:18.525Z,4.60
2023-05-25T05:34:50.793Z,4.50
2023-05-25T05:37:21.821Z,5.23
2023-05-25T05:39:53.357Z,5.70
2023-05-25T05:42:24.402Z,6.20
2023-05-25T05:44:55.284Z,5.80
2023-05-25T05:47:26.611Z,5.27
2023-05-25T05:49:57.651Z,5.33
2023-05-25T05:52:28.616Z,5.50
2023-05-25T05:54:59.530Z,6.13
2023-05-25T05:57:30.587Z,6.40
2023-05-25T06:00:01.584Z,5.43
2023-05-25T06:02:32.727Z,6.47
2023-05-25T06:05:03.986Z,5.73
2023-05-25T06:07:35.307Z,5.73
2023-05-25T06:10:07.303Z,6.27
2023-05-25T06:12:38.287Z,6.00
2023-05-25T06:15:09.798Z,5.50
2023-05-25T06:17:41.925Z,5.30
2023-05-25T06:20:15.110Z,5.80
2023-05-25T06:22:46.211Z,5.83
2023-05-25T06:25:17.583Z,6.03
2023-05-25T06:27:48.535Z,6.37
2023-05-25T06:30:19.499Z,6.43
2023-05-25T06:32:50.511Z,5.53
2023-05-25T06:35:21.556Z,5.77
2023-05-25T06:37:52.836Z,5.93
2023-05-25T06:40:25.056Z,6.57
2023-05-25T06:42:56.135Z,6.67
2023-05-25T06:45:27.037Z,6.50
2023-05-25T06:47:58.140Z,5.40
2023-05-25T06:50:29.407Z,6.70
2023-05-25T06:53:00.688Z,5.97
2023-05-25T06:55:31.761Z,5.57
2023-05-25T06:58:02.896Z,5.83
2023-05-25T07:00:33.918Z,6.77
2023-05-25T07:03:04.840Z,6.30
2023-05-25T07:05:35.810Z,6.70
2023-05-25T07:08:06.833Z,7.33
2023-05-25T07:10:37.758Z,6.40
2023-05-25T07:13:10.116Z,6.10
2023-05-25T07:15:41.137Z,6.70
2023-05-25T07:18:13.130Z,6.50
2023-05-25T07:20:44.525Z,7.20
2023-05-25T07:23:15.575Z,6.83
2023-05-25T07:25:46.764Z,6.97
2023-05-25T07:28:17.917Z,6.83
2023-05-25T07:30:48.821Z,6.70
2023-05-25T07:33:19.764Z,6.90
2023-05-25T07:35:51.822Z,6.00
2023-05-25T07:38:22.821Z,5.70
2023-05-25T07:40:53.717Z,6.53
2023-05-25T07:43:24.948Z,7.73
2023-05-25T07:45:55.995Z,6.83
2023-05-25T07:48:27.137Z,6.43
2023-05-25T07:50:58.132Z,6.00
2023-05-25T07:53:29.211Z,7.27
2023-05-25T07:56:00.124Z,6.90
2023-05-25T07:58:31.072Z,6.40
2023-05-25T08:01:02.108Z,6.57
2023-05-25T08:03:47.974Z,6.70
2023-05-25T08:06:20.783Z,6.43
2023-05-25T08:08:51.995Z,6.70
2023-05-25T08:11:26.765Z,6.80
2023-05-25T08:13:57.672Z,6.47
2023-05-25T08:16:28.657Z,6.53
2023-05-25T08:19:01.959Z,6.40
2023-05-25T08:21:35.180Z,7.30
2023-05-25T08:24:08.447Z,6.10
2023-05-25T08:26:53.841Z,6.13
2023-05-25T08:29:25.939Z,6.80
2023-05-25T08:31:57.279Z,6.57
2023-05-25T08:34:29.221Z,6.63
2023-05-25T08:37:00.567Z,6.73
2023-05-25T08:39:32.969Z,7.40
2023-05-25T08:42:07.206Z,6.67
2023-05-25T08:44:39.909Z,7.73
2023-05-25T08:47:13.455Z,7.03
2023-05-25T08:49:45.753Z,7.13
2023-05-25T08:52:22.915Z,6.97
2023-05-25T08:54:58.928Z,7.47
2023-05-25T08:58:00.615Z,7.97
2023-05-25T09:00:45.218Z,6.37
2023-05-25T09:03:20.304Z,8.10
2023-05-25T09:05:51.848Z,6.57
2023-05-25T09:08:23.425Z,6.20
2023-05-25T09:10:57.504Z,8.10
2023-05-25T09:13:28.526Z,6.97
2023-05-25T09:15:59.509Z,6.40
2023-05-25T09:18:30.495Z,6.00
2023-05-25T09:21:02.860Z,7.40
2023-05-25T09:23:35.550Z,6.30
2023-05-25T09:26:06.576Z,6.80
2023-05-25T09:28:47.035Z,6.90
2023-05-25T09:31:18.004Z,7.40
2023-05-25T09:33:49.064Z,6.00
2023-05-25T09:36:22.048Z,7.00
2023-05-25T09:38:55.000Z,7.03
2023-05-25T09:41:29.263Z,7.00
2023-05-25T09:44:10.941Z,6.53
2023-05-25T09:46:44.161Z,6.73
2023-05-25T09:49:15.516Z,6.00
2023-05-25T09:51:47.155Z,7.20
2023-05-25T09:54:18.209Z,7.63
2023-05-25T09:56:49.782Z,6.90
2023-05-25T09:59:23.205Z,5.77
2023-05-25T10:01:54.334Z,5.83
2023-05-25T10:04:25.588Z,6.43
2023-05-25T10:06:57.542Z,5.90
2023-05-25T10:09:30.723Z,6.57
2023-05-25T10:12:02.859Z,5.73
2023-05-25T10:14:37.845Z,6.77
2023-05-25T10:17:11.608Z,6.50
2023-05-25T10:19:52.765Z,6.13
2023-05-25T10:22:48.621Z,6.00
2023-05-25T10:25:31.342Z,5.90
2023-05-25T10:28:08.478Z,6.90
2023-05-25T10:30:41.360Z,6.53
2023-05-25T10:33:12.954Z,6.50
2023-05-25T10:36:01.671Z,6.23
2023-05-25T10:38:34.402Z,5.93
2023-05-25T10:41:09.235Z,6.20
2023-05-25T10:43:41.215Z,6.13
2023-05-25T10:46:15.084Z,5.93
2023-05-25T10:48:48.918Z,5.70
2023-05-25T10:51:20.999Z,6.20
2023-05-25T10:54:04.286Z,6.43
2023-05-25T10:56:35.265Z,5.93
2023-05-25T10:59:06.236Z,5.60
2023-05-25T11:01:51.715Z,5.50
2023-05-25T11:04:23.156Z,6.30
2023-05-25T11:07:16.455Z,5.10
2023-05-25T11:09:58.587Z,6.53
2023-05-25T11:12:29.634Z,6.73
2023-05-25T11:15:17.230Z,5.63
2023-05-25T11:18:01.536Z,5.67
2023-05-25T11:20:34.018Z,5.13
2023-05-25T11:23:23.459Z,5.90
2023-05-25T11:26:06.766Z,5.60
2023-05-25T11:28:47.070Z,5.17
2023-05-25T11:31:35.861Z,5.83
2023-05-25T11:34:09.436Z,5.50
2023-05-25T11:36:41.402Z,5.90
2023-05-25T11:39:22.012Z,5.47
2023-05-25T11:42:04.027Z,5.57
2023-05-25T11:44:36.900Z,5.97
2023-05-25T11:47:13.457Z,5.37
2023-05-25T11:49:47.146Z,5.40
2023-05-25T11:52:20.153Z,5.37
2023-05-25T11:54:53.125Z,4.80
2023-05-25T11:57:25.728Z,5.83
2023-05-25T12:00:01.990Z,5.57
2023-05-25T12:02:41.281Z,5.80
2023-05-25T12:05:12.429Z,6.40
2023-05-25T12:07:46.768Z,5.40
2023-05-25T12:10:18.312Z,5.90
2023-05-25T12:12:53.189Z,6.40
2023-05-25T12:15:25.844Z,5.67
2023-05-25T12:17:57.098Z,6.30
2023-05-25T12:20:28.345Z,6.80
2023-05-25T12:22:59.429Z,5.70
2023-05-25T12:25:42.358Z,5.33
2023-05-25T12:28:20.457Z,5.67
2023-05-25T12:30:52.011Z,5.80
2023-05-25T12:33:23.254Z,5.67
2023-05-25T12:35:55.824Z,6.40
2023-05-25T12:38:26.860Z,5.13
2023-05-25T12:41:08.117Z,6.00
2023-05-25T12:43:43.829Z,5.93
2023-05-25T12:46:25.912Z,6.07
2023-05-25T12:48:56.918Z,6.47
2023-05-25T12:51:39.207Z,5.97
2023-05-25T12:54:10.151Z,5.90
2023-05-25T12:56:59.732Z,6.63
2023-05-25T12:59:31.485Z,6.37
2023-05-25T13:02:05.253Z,6.33
2023-05-25T13:04:38.147Z,6.33
2023-05-25T13:07:10.132Z,6.30
2023-05-25T13:09:41.444Z,4.97
2023-05-25T13:12:12.880Z,5.90
2023-05-25T13:14:43.806Z,5.30
2023-05-25T13:17:15.412Z,5.93
2023-05-25T13:19:46.312Z,5.40
2023-05-25T13:22:17.298Z,5.57
2023-05-25T13:24:48.203Z,5.70
2023-05-25T13:27:19.099Z,6.40
2023-05-25T13:29:50.076Z,7.10
2023-05-25T13:32:21.181Z,5.00
2023-05-25T13:34:54.072Z,5.00
2023-05-25T13:37:25.345Z,5.30
2023-05-25T13:39:56.476Z,5.23
2023-05-25T13:42:27.420Z,5.00
2023-05-25T13:44:58.443Z,6.07
2023-05-25T13:47:29.441Z,5.03
2023-05-25T13:50:00.359Z,5.93
2023-05-25T13:52:31.266Z,5.03
2023-05-25T13:55:02.153Z,5.47
2023-05-25T13:57:33.068Z,5.00
2023-05-25T14:00:06.116Z,4.57
2023-05-25T14:02:37.255Z,5.73
2023-05-25T14:05:08.854Z,5.63
2023-05-25T14:07:41.261Z,5.30
2023-05-25T14:10:12.332Z,6.00
2023-05-25T14:12:43.362Z,5.97
2023-05-25T14:15:14.328Z,5.17
2023-05-25T14:17:45.359Z,4.87
2023-05-25T14:20:21.217Z,4.97
2023-05-25T14:22:53.053Z,5.13
2023-05-25T14:25:24.112Z,5.80
2023-05-25T14:27:55.908Z,5.80
2023-05-25T14:30:26.893Z,5.30
2023-05-25T14:32:57.873Z,5.37
2023-05-25T14:35:28.930Z,5.00
2023-05-25T14:37:59.942Z,6.03
2023-05-25T14:40:30.971Z,5.50
2023-05-25T14:43:02.073Z,5.77
2023-05-25T14:45:33.006Z,5.53
2023-05-25T14:48:15.373Z,6.73
2023-05-25T14:50:47.279Z,5.60
2023-05-25T14:53:18.685Z,4.40
2023-05-25T14:55:49.581Z,5.17
2023-05-25T14:58:20.820Z,5.97
2023-05-25T15:00:51.745Z,4.93
2023-05-25T15:03:22.759Z,5.20
2023-05-25T15:05:53.745Z,4.60
2023-05-25T15:08:24.684Z,5.43
2023-05-25T15:10:56.507Z,5.40
2023-05-25T15:13:27.394Z,5.03
2023-05-25T15:15:59.589Z,5.60
2023-05-25T15:18:30.629Z,4.97
2023-05-25T15:21:01.622Z,4.50
2023-05-25T15:23:32.618Z,4.90
2023-05-25T15:26:04.361Z,5.53
2023-05-25T15:28:35.472Z,4.90
2023-05-25T15:31:06.359Z,5.80
2023-05-25T15:33:52.007Z,5.70
2023-05-25T15:36:27.389Z,4.33
2023-05-25T15:38:58.573Z,5.33
2023-05-25T15:41:29.469Z,5.37
2023-05-25T15:44:01.442Z,5.43
2023-05-25T15:46:32.530Z,4.83
2023-05-25T15:49:03.573Z,4.37
2023-05-25T15:51:34.506Z,5.00
2023-05-25T15:54:05.765Z,5.10
2023-05-25T15:56:37.689Z,4.93
2023-05-25T15:59:08.644Z,4.80
2023-05-25T16:01:39.614Z,4.67
2023-05-25T16:04:10.727Z,5.50
2023-05-25T16:06:41.690Z,4.50
2023-05-25T16:09:12.669Z,4.97
2023-05-25T16:11:43.624Z,4.20
2023-05-25T16:14:14.605Z,4.90
2023-05-25T16:16:45.642Z,4.70
2023-05-25T16:19:16.701Z,6.27
2023-05-25T16:21:47.684Z,4.80
2023-05-25T16:24:18.698Z,4.93
2023-05-25T16:26:49.774Z,4.83
2023-05-25T16:29:20.775Z,5.00
2023-05-25T16:31:51.843Z,4.33
2023-05-25T16:34:23.209Z,5.33
2023-05-25T16:36:54.118Z,5.13
2023-05-25T16:39:25.052Z,4.60
2023-05-25T16:41:56.915Z,4.73
2023-05-25T16:44:27.954Z,4.60
2023-05-25T16:46:58.849Z,4.93
2023-05-25T16:49:29.906Z,4.07
2023-05-25T16:52:02.601Z,4.40
2023-05-25T16:54:33.565Z,4.83
2023-05-25T16:57:04.707Z,4.53
2023-05-25T16:59:35.757Z,4.93
2023-05-25T17:02:07.179Z,4.40
2023-05-25T17:04:38.201Z,4.80
2023-05-25T17:07:09.179Z,4.20
2023-05-25T17:09:40.110Z,4.60
2023-05-25T17:12:11.177Z,4.67
2023-05-25T17:14:42.099Z,4.30
2023-05-25T17:17:13.440Z,5.57
2023-05-25T17:19:44.377Z,4.70
2023-05-25T17:22:16.425Z,4.73
2023-05-25T17:24:47.335Z,4.30
2023-05-25T17:27:18.588Z,4.37
2023-05-25T17:29:49.522Z,4.90
2023-05-25T17:32:20.722Z,5.30
2023-05-25T17:34:51.768Z,4.47
2023-05-25T17:37:22.666Z,4.50
2023-05-25T17:39:53.574Z,4.60
2023-05-25T17:42:24.629Z,4.80
2023-05-25T17:44:55.701Z,4.67
2023-05-25T17:47:27.415Z,4.90
2023-05-25T17:49:58.376Z,5.43
2023-05-25T17:52:31.023Z,4.60
2023-05-25T17:55:01.950Z,4.63
2023-05-25T17:57:33.193Z,4.90
2023-05-25T18:00:05.188Z,5.03
2023-05-25T18:02:36.310Z,4.30
2023-05-25T18:05:07.776Z,4.90
2023-05-25T18:07:38.702Z,5.23
2023-05-25T18:10:10.125Z,4.23
2023-05-25T18:12:41.537Z,4.73
2023-05-25T18:15:12.864Z,4.77
2023-05-25T18:17:43.852Z,4.63
2023-05-25T18:20:14.879Z,4.90
2023-05-25T18:22:45.853Z,5.00
2023-05-25T18:25:16.927Z,5.27
2023-05-25T18:27:48.059Z,4.70
2023-05-25T18:30:19.223Z,5.03
2023-05-25T18:32:50.333Z,4.90
2023-05-25T18:35:21.365Z,4.10
2023-05-25T18:37:52.283Z,5.80
2023-05-25T18:40:23.416Z,5.20
2023-05-25T18:42:54.389Z,5.47
2023-05-25T18:45:26.077Z,5.43
2023-05-25T18:47:57.317Z,5.30
2023-05-25T18:50:28.262Z,4.50
2023-05-25T18:52:59.603Z,4.70
2023-05-25T18:55:30.534Z,5.80
2023-05-25T18:58:01.532Z,6.40
2023-05-25T19:00:32.652Z,5.13
2023-05-25T19:03:03.764Z,4.70
2023-05-25T19:05:35.232Z,5.47
2023-05-25T19:08:06.242Z,5.30
2023-05-25T19:10:37.201Z,5.53
2023-05-25T19:13:08.508Z,6.10
2023-05-25T19:15:39.395Z,5.03
2023-05-25T19:18:10.497Z,5.50
2023-05-25T19:20:41.587Z,5.70
2023-05-25T19:23:13.403Z,5.60
2023-05-25T19:25:44.524Z,5.30
2023-05-25T19:28:15.711Z,6.07
2023-05-25T19:30:46.879Z,5.83
2023-05-25T19:33:18.335Z,5.57
2023-05-25T19:35:49.255Z,5.50
2023-05-25T19:38:20.347Z,5.50
2023-05-25T19:40:51.369Z,5.50
2023-05-25T19:43:22.314Z,4.67
2023-05-25T19:45:53.248Z,4.90
2023-05-25T19:48:26.665Z,5.50
2023-05-25T19:50:58.470Z,5.10
2023-05-25T19:53:31.375Z,4.40
2023-05-25T19:56:03.505Z,5.23
2023-05-25T19:58:34.552Z,5.47
2023-05-25T20:01:05.693Z,4.80
2023-05-25T20:03:36.794Z,5.23
2023-05-25T20:06:08.029Z,4.80
2023-05-25T20:08:39.054Z,5.27
2023-05-25T20:11:09.961Z,14.50
2023-05-25T20:13:41.492Z,4.90
2023-05-25T20:16:13.016Z,5.13
2023-05-25T20:18:44.651Z,5.27
2023-05-25T20:21:15.643Z,4.97
2023-05-25T20:23:46.859Z,4.80
2023-05-25T20:26:17.796Z,4.80
2023-05-25T20:28:48.735Z,5.30
2023-05-25T20:31:19.660Z,7.30
2023-05-25T20:33:50.618Z,5.90
2023-05-25T20:36:21.549Z,5.30
2023-05-25T20:38:52.709Z,5.20
2023-05-25T20:41:23.638Z,6.40
2023-05-25T20:43:54.526Z,5.73
2023-05-25T20:46:26.182Z,6.10
2023-05-25T20:48:58.165Z,6.13
2023-05-25T20:51:29.246Z,6.10
2023-05-25T20:54:00.151Z,6.00
2023-05-25T20:56:31.380Z,6.30
2023-05-25T20:59:02.262Z,5.83
2023-05-25T21:01:33.269Z,6.13
2023-05-25T21:04:04.477Z,5.80
2023-05-25T21:06:36.496Z,6.10
2023-05-25T21:09:07.583Z,6.77
2023-05-25T21:11:38.556Z,6.10
2023-05-25T21:14:09.600Z,5.90
2023-05-25T21:16:40.850Z,6.73
2023-05-25T21:19:11.954Z,5.73
2023-05-25T21:21:42.866Z,6.70
2023-05-25T21:24:13.832Z,7.00
2023-05-25T21:26:44.709Z,6.80
2023-05-25T21:29:15.677Z,6.10
2023-05-25T21:31:46.751Z,6.83
2023-05-25T21:34:17.782Z,7.00
2023-05-25T21:36:49.211Z,7.00
2023-05-25T21:39:20.156Z,6.40
2023-05-25T21:41:51.113Z,6.47
2023-05-25T21:44:22.015Z,6.37
2023-05-25T21:46:53.021Z,6.50
2023-05-25T21:49:23.942Z,6.97
2023-05-25T21:51:54.848Z,6.80
2023-05-25T21:54:25.994Z,6.77
2023-05-25T21:56:56.917Z,6.67
2023-05-25T21:59:27.843Z,6.63
2023-05-25T22:01:58.818Z,6.37
2023-05-25T22:04:29.752Z,6.60
2023-05-25T22:07:00.710Z,6.90
2023-05-25T22:09:31.820Z,7.00
2023-05-25T22:12:02.822Z,6.57
2023-05-25T22:14:33.795Z,6.40
2023-05-25T22:17:05.153Z,7.00
2023-05-25T22:19:36.252Z,5.93
2023-05-25T22:22:07.143Z,6.00
2023-05-25T22:24:38.087Z,6.60
2023-05-25T22:27:09.118Z,6.50
2023-05-25T22:29:40.063Z,6.97
2023-05-25T22:32:11.019Z,6.93
2023-05-25T22:34:41.938Z,6.27
2023-05-25T22:37:14.028Z,7.30
2023-05-25T22:39:45.051Z,6.67
2023-05-25T22:42:16.030Z,6.67
2023-05-25T22:44:46.926Z,6.97
2023-05-25T22:47:17.990Z,6.30
2023-05-25T22:49:49.014Z,6.63
2023-05-25T22:52:19.963Z,6.40
2023-05-25T22:54:50.885Z,6.07
2023-05-25T22:57:21.803Z,5.80
2023-05-25T22:59:52.689Z,5.93
2023-05-25T23:02:23.613Z,6.60
2023-05-25T23:04:54.529Z,6.00
2023-05-25T23:07:26.215Z,5.97
2023-05-25T23:09:57.321Z,6.10
2023-05-25T23:12:28.358Z,7.40
2023-05-25T23:15:01.370Z,6.43
2023-05-25T23:17:32.642Z,6.37
2023-05-25T23:20:13.089Z,6.07
2023-05-25T23:22:43.989Z,7.07
2023-05-25T23:25:14.933Z,6.70
2023-05-25T23:27:45.794Z,5.57
2023-05-25T23:30:16.826Z,6.00
2023-05-25T23:32:47.791Z,5.83
2023-05-25T23:35:18.723Z,6.50
2023-05-25T23:37:51.896Z,6.57
2023-05-25T23:40:22.958Z,6.90
2023-05-25T23:42:53.898Z,6.07
2023-05-25T23:45:24.759Z,6.63
2023-05-25T23:47:55.818Z,5.93
2023-05-25T23:50:26.700Z,5.37
2023-05-25T23:52:57.592Z,6.20
2023-05-25T23:55:28.761Z,6.00
2023-05-25T23:57:59.639Z,6.80
